Baghdad, Iraq
Current Conditions -  °F | °C
As of 10:30 PM on Sunday 21 Dec 2014 (Local Time) from ORBI Reporting Station
Clear Clear  
Wind Chill: 52°   Ceiling: Unl
Heat Index: 52°   Visibility: 6mi
Dew Point: 45°   Wind: 8mph
Humidity: 76%   Direction: 280°W
Pressure: 30.09"   Gusts: NA
Location:  33.33°N, 44.44°E
Report Text: ORBI 211930Z 28007KT CAVOK 11/07 Q1019
Loading
Personal Weather Stations






























Interactive Weather Map New forecast layout! Learn more

10-Day Weather Forecast

Advertisements
Track Severe Weather on mobile